Nearby METAR Reports

 

KBDU - Boulder Muni, Colorado, USA
Distance from station: ESE 5mi, 9km
Updated: Tue, 18-Dec-2018 2:30pm MST
Clear
Clear
 Wind from calm
Wind: Calm
Temperature: 55°F , 13°C
Dew Point: 19°F , -7°C
Humidity: 24%
Barometer: 29.87 inHg , 1011.5 hPa
Clouds: Clear
Visibility: 10 miles , 16 km
2018/12/18 21:30 KBDU 182130Z AUTO 00000KT 10SM CLR 13/M07 A2987 RMK AO2
KLMO - Longmont/Vbrand, Colorado, USA
Distance from station: NE 11mi, 18km
Updated: Tue, 18-Dec-2018 2:35pm MST
Clear
Clear
 Wind from WSW
Wind: WSW 14 mph , 22 km/h
Temperature: 59°F , 15°C
Dew Point: 16°F , -9°C
Humidity: 18%
Barometer: 29.88 inHg , 1011.9 hPa
Clouds: Clear
Visibility: 10 miles , 16 km
2018/12/18 21:35 KLMO 182135Z AUTO 25012KT 10SM CLR 15/M09 A2988 RMK AO2 T01511090
 
KEIK - Erie Muni, Colorado, USA
Distance from station: ESE 15mi, 24km
Updated: Tue, 18-Dec-2018 2:36pm MST
Clear
Clear
 Wind from calm
Wind: Calm
Temperature: 57°F , 14°C
Dew Point: 16°F , -9°C
Humidity: 20%
Barometer: 29.92 inHg , 1013.2 hPa
Clouds: Clear
Visibility: 10 miles , 16 km
2018/12/18 21:36 KEIK 182136Z AUTO 00000KT 10SM CLR 14/M09 A2992 RMK AO2 T01351094
KBJC - Broomfield/Jeffc, Colorado, USA
Distance from station: SE 17mi, 27km
Updated: Tue, 18-Dec-2018 1:47pm MST
Clear
Clear
 Wind from W
Wind: W 17 mph , 28 km/h
Temperature: 55°F , 13°C
Dew Point: 18°F , -8°C
Humidity: 23%
Barometer: 29.90 inHg , 1012.5 hPa
Clouds: Clear
Visibility: 30 miles , 48 km
2018/12/18 20:47 KBJC 182047Z 27015KT 30SM SKC 13/M08 A2990
 
KFNL - Ft Collins/Lovel, Colorado, USA
Distance from station: NNE 31mi, 50km
Updated: Tue, 18-Dec-2018 1:56pm MST
Clear
Clear
 Wind from S
Wind: S 8 mph , 13 km/h
Temperature: 55°F , 13°C
Dew Point: 19°F , -7°C
Humidity: 24%
Barometer: 29.88 inHg , 1011.9 hPa
Clouds: Clear
Visibility: 10 miles , 16 km
2018/12/18 20:56 KFNL 182056Z AUTO 17007KT 10SM CLR 13/M07 A2988 RMK AO2 SLP101 6//// T01281067 56032 PNO $
KDEN - Denver (dia), Colorado, USA
Distance from station: ESE 39mi, 62km
Updated: Tue, 18-Dec-2018 1:53pm MST
Few Clouds
Few Clouds
 Wind from N
Wind: N 3 mph , 6 km/h
Temperature: 55°F , 13°C
Dew Point: 18°F , -8°C
Humidity: 23%
Barometer: 29.89 inHg , 1012.2 hPa
Clouds: Few Clouds
Visibility: 10 miles , 16 km
Cloud details: Few Clouds 9000 ft
Few Clouds 22000 ft
2018/12/18 20:53 KDEN 182053Z 36003KT 10SM FEW090 FEW220 13/M08 A2989 RMK AO2 SLP087 T01331083 56025
 
KBKF - Buckley Angb/Den, Colorado, USA
Distance from station: SE 39mi, 63km
Updated: Tue, 18-Dec-2018 1:58pm MST
Clear
Clear
 Wind from NW
Wind: NW 6 mph , 9 km/h
Temperature: 55°F , 13°C
Dew Point: 18°F , -8°C
Humidity: 23%
Barometer: 29.90 inHg , 1012.5 hPa
Clouds: Clear
Visibility: 10 miles , 16 km
2018/12/18 20:58 KBKF 182058Z 31005KT 10SM CLR 13/M08 A2990 RMK AO2A SLP088 T01281078 57025
KAPA - Denver/Arapahoe, Colorado, USA
Distance from station: SE 43mi, 69km
Updated: Tue, 18-Dec-2018 1:53pm MST
Few Clouds
Few Clouds
 Wind from NW
Wind: NW 9 mph , 15 km/h
Temperature: 54°F , 12°C
Dew Point: 19°F , -7°C
Humidity: 26%
Barometer: 29.90 inHg , 1012.5 hPa
Clouds: Few Clouds
Visibility: 10 miles , 16 km
Cloud details: Few Clouds 8000 ft
Few Clouds 22000 ft
2018/12/18 20:53 KAPA 182053Z 32008KT 10SM FEW080 FEW220 12/M07 A2990 RMK AO2 SLP107 T01221072 56026
 
KGXY - Greeley/Weld, Colorado, USA
Distance from station: NE 45mi, 72km
Updated: Tue, 18-Dec-2018 1:56pm MST
Clear
Clear
 Wind from SE
Wind: SE 5 mph , 7 km/h
Temperature: 55°F , 13°C
Dew Point: 19°F , -7°C
Humidity: 24%
Barometer: 29.88 inHg , 1011.9 hPa
Clouds: Clear
Visibility: 10 miles , 16 km
2018/12/18 20:56 KGXY 182056Z AUTO 14004KT 10SM CLR 13/M07 A2988 RMK AO2 SLP125 T01331072 58033
KFTG - Denver F. Range, Colorado, USA
Distance from station: ESE 46mi, 73km
Updated: Tue, 18-Dec-2018 1:49pm MST
Few Clouds
Few Clouds
 Wind from W
Wind: W 5 mph , 7 km/h
Temperature: 57°F , 14°C
Dew Point: 18°F , -8°C
Humidity: 21%
Barometer: 29.90 inHg , 1012.5 hPa
Clouds: Few Clouds
Visibility: 10 miles , 16 km
Cloud details: Few Clouds 22000 ft
2018/12/18 20:49 KFTG 182049Z 28004KT 10SM FEW220 14/M08 A2990